SDM6331 UUWW-ULPB
Flight info
| Callsign | SDM6331 |
|---|---|
| Flight time | 1h 15m |
| Altitude | 39000 |
| Route | RILPO3W RILPO T753 DEGOP/K0922F380 T747 TIPNA N198 RUROS T785 PEMEM PEMEM2G |
| Aircraft | B77W/H-SDE1E2E3FGHIJ2J3J4J5M1RWXY/LB1D1 |
Departure
| Time | 2026-04-24 12:01 |
|---|---|
| Airport | Vnukovo International Airport (UUWW) |
Arrival
| Time | 2026-04-24 13:16 |
|---|---|
| Airport | Petrozavodsk Airport (ULPB) |
| Time | Latitude | Longitude | Altitude | Speed | Heading |
|---|---|---|---|---|---|
| 2026-04-24 11:40 | 55.60629 | 37.28342 | 703 ft | 0 kts | 46° |
| 2026-04-24 11:48 | 55.60619 | 37.28325 | 703 ft | 2 kts | 45° |
| 2026-04-24 11:48 | 55.60609 | 37.28306 | 703 ft | 2 kts | 45° |
| 2026-04-24 11:49 | 55.60598 | 37.28287 | 703 ft | 2 kts | 44° |
| 2026-04-24 11:49 | 55.60588 | 37.28269 | 703 ft | 2 kts | 44° |
| 2026-04-24 11:49 | 55.60577 | 37.28251 | 703 ft | 2 kts | 43° |
| 2026-04-24 11:49 | 55.60566 | 37.28232 | 703 ft | 2 kts | 43° |
| 2026-04-24 11:50 | 55.60555 | 37.28215 | 703 ft | 2 kts | 42° |
| 2026-04-24 11:50 | 55.60544 | 37.28197 | 703 ft | 2 kts | 42° |
| 2026-04-24 11:50 | 55.60533 | 37.28179 | 703 ft | 2 kts | 42° |
| 2026-04-24 11:50 | 55.60522 | 37.28162 | 703 ft | 2 kts | 42° |
| 2026-04-24 11:51 | 55.60511 | 37.28143 | 703 ft | 2 kts | 42° |
| 2026-04-24 11:51 | 55.60500 | 37.28125 | 703 ft | 2 kts | 42° |
| 2026-04-24 11:51 | 55.60489 | 37.28108 | 703 ft | 2 kts | 42° |
| 2026-04-24 11:51 | 55.60477 | 37.28090 | 703 ft | 2 kts | 42° |
| 2026-04-24 11:52 | 55.60472 | 37.28081 | 703 ft | 0 kts | 42° |
| 2026-04-24 11:53 | 55.60474 | 37.28083 | 703 ft | 0 kts | 43° |
| 2026-04-24 11:53 | 55.60474 | 37.28085 | 703 ft | 1 kts | 43° |
| 2026-04-24 11:53 | 55.60497 | 37.28123 | 703 ft | 6 kts | 43° |
| 2026-04-24 11:54 | 55.60550 | 37.28142 | 703 ft | 9 kts | 341° |
| 2026-04-24 11:54 | 55.60613 | 37.28064 | 703 ft | 12 kts | 320° |
| 2026-04-24 11:54 | 55.60678 | 37.27955 | 703 ft | 13 kts | 314° |
| 2026-04-24 11:54 | 55.60749 | 37.27836 | 703 ft | 14 kts | 317° |
| 2026-04-24 11:55 | 55.60767 | 37.27714 | 703 ft | 11 kts | 230° |
| 2026-04-24 11:55 | 55.60754 | 37.27697 | 703 ft | 2 kts | 214° |
| 2026-04-24 11:55 | 55.60730 | 37.27651 | 703 ft | 7 kts | 245° |
| 2026-04-24 11:55 | 55.60729 | 37.27505 | 703 ft | 17 kts | 282° |
| 2026-04-24 11:56 | 55.60751 | 37.27234 | 703 ft | 27 kts | 262° |
| 2026-04-24 11:56 | 55.60733 | 37.27055 | 703 ft | 10 kts | 268° |
| 2026-04-24 11:56 | 55.60712 | 37.26921 | 703 ft | 14 kts | 251° |
| 2026-04-24 11:56 | 55.60670 | 37.26696 | 703 ft | 15 kts | 230° |
| 2026-04-24 11:57 | 55.60576 | 37.26598 | 703 ft | 16 kts | 203° |
| 2026-04-24 11:57 | 55.60456 | 37.26507 | 703 ft | 24 kts | 202° |
| 2026-04-24 11:57 | 55.60389 | 37.26452 | 703 ft | 0 kts | 212° |
| 2026-04-24 11:58 | 55.60334 | 37.26408 | 703 ft | 27 kts | 201° |
| 2026-04-24 11:58 | 55.60062 | 37.26224 | 703 ft | 29 kts | 184° |
| 2026-04-24 11:58 | 55.59944 | 37.26386 | 703 ft | 21 kts | 112° |
| 2026-04-24 11:59 | 55.59862 | 37.26604 | 703 ft | 21 kts | 150° |
| 2026-04-24 11:59 | 55.59643 | 37.26519 | 703 ft | 57 kts | 205° |
| 2026-04-24 11:59 | 55.59251 | 37.26223 | 703 ft | 60 kts | 202° |
| 2026-04-24 11:59 | 55.58916 | 37.25964 | 703 ft | 38 kts | 192° |
| 2026-04-24 12:00 | 55.58804 | 37.25966 | 703 ft | 11 kts | 224° |
| 2026-04-24 12:00 | 55.58817 | 37.25907 | 703 ft | 5 kts | 359° |
| 2026-04-24 12:00 | 55.58919 | 37.25959 | 703 ft | 31 kts | 21° |
| 2026-04-24 12:00 | 55.58922 | 37.25961 | 703 ft | 32 kts | 21° |
| 2026-04-24 12:01 | 55.59325 | 37.26272 | 703 ft | 99 kts | 23° |
| 2026-04-24 12:01 | 55.60202 | 37.26940 | 705 ft | 171 kts | 25° |
| 2026-04-24 12:01 | 55.61354 | 37.27907 | 1166 ft | 191 kts | 31° |
| 2026-04-24 12:01 | 55.62439 | 37.29195 | 1944 ft | 195 kts | 37° |
| 2026-04-24 12:02 | 55.63572 | 37.30800 | 2003 ft | 220 kts | 34° |
| 2026-04-24 12:02 | 55.65001 | 37.31701 | 2588 ft | 217 kts | 11° |
| 2026-04-24 12:02 | 55.66373 | 37.32601 | 3174 ft | 215 kts | 38° |
| 2026-04-24 12:02 | 55.67200 | 37.34747 | 3670 ft | 216 kts | 77° |
| 2026-04-24 12:03 | 55.67106 | 37.37353 | 4164 ft | 216 kts | 114° |
| 2026-04-24 12:03 | 55.66319 | 37.39605 | 4633 ft | 217 kts | 123° |
| 2026-04-24 12:03 | 55.65449 | 37.41819 | 5105 ft | 220 kts | 137° |
| 2026-04-24 12:03 | 55.64156 | 37.43198 | 5576 ft | 221 kts | 156° |
| 2026-04-24 12:04 | 55.62762 | 37.44393 | 6053 ft | 223 kts | 153° |
| 2026-04-24 12:04 | 55.61400 | 37.45623 | 6553 ft | 223 kts | 154° |
| 2026-04-24 12:04 | 55.59987 | 37.46852 | 6407 ft | 230 kts | 154° |
| 2026-04-24 12:04 | 55.58426 | 37.47906 | 6477 ft | 254 kts | 172° |
| 2026-04-24 12:05 | 55.56665 | 37.47554 | 6767 ft | 266 kts | 203° |
| 2026-04-24 12:05 | 55.55191 | 37.45608 | 7328 ft | 265 kts | 227° |
| 2026-04-24 12:05 | 55.53940 | 37.43242 | 7827 ft | 268 kts | 225° |
| 2026-04-24 12:05 | 55.52589 | 37.40929 | 8400 ft | 269 kts | 224° |
| 2026-04-24 12:06 | 55.51262 | 37.38636 | 8946 ft | 271 kts | 224° |
| 2026-04-24 12:06 | 55.49915 | 37.36280 | 9473 ft | 272 kts | 230° |
| 2026-04-24 12:06 | 55.49021 | 37.33357 | 9958 ft | 275 kts | 257° |
| 2026-04-24 12:06 | 55.49050 | 37.30025 | 10429 ft | 277 kts | 287° |
| 2026-04-24 12:07 | 55.50491 | 37.26334 | 11055 ft | 279 kts | 321° |
| 2026-04-24 12:07 | 55.51515 | 37.24941 | 11345 ft | 281 kts | 322° |
| 2026-04-24 12:07 | 55.53004 | 37.22722 | 11815 ft | 284 kts | 319° |
| 2026-04-24 12:07 | 55.54493 | 37.20430 | 12326 ft | 285 kts | 317° |
| 2026-04-24 12:08 | 55.55882 | 37.17957 | 12801 ft | 288 kts | 314° |
| 2026-04-24 12:08 | 55.57294 | 37.15409 | 13291 ft | 289 kts | 315° |
| 2026-04-24 12:08 | 55.58688 | 37.12885 | 13746 ft | 291 kts | 315° |
| 2026-04-24 12:08 | 55.60097 | 37.10319 | 14204 ft | 294 kts | 315° |
| 2026-04-24 12:09 | 55.61534 | 37.07699 | 14662 ft | 296 kts | 315° |
| 2026-04-24 12:09 | 55.62964 | 37.05086 | 15109 ft | 298 kts | 315° |
| 2026-04-24 12:09 | 55.64540 | 37.02752 | 15542 ft | 299 kts | 331° |
| 2026-04-24 12:09 | 55.66426 | 37.01257 | 15917 ft | 301 kts | 338° |
| 2026-04-24 12:10 | 55.68356 | 36.99758 | 16322 ft | 304 kts | 337° |
| 2026-04-24 12:10 | 55.70291 | 36.98297 | 16763 ft | 305 kts | 338° |
| 2026-04-24 12:10 | 55.72255 | 36.96837 | 17174 ft | 307 kts | 338° |
| 2026-04-24 12:11 | 55.76196 | 36.93844 | 17955 ft | 311 kts | 337° |
| 2026-04-24 12:11 | 55.78183 | 36.92324 | 18339 ft | 313 kts | 337° |
| 2026-04-24 12:11 | 55.80206 | 36.90778 | 18723 ft | 315 kts | 339° |
| 2026-04-24 12:11 | 55.82304 | 36.89764 | 19102 ft | 316 kts | 355° |
| 2026-04-24 12:12 | 55.84488 | 36.89763 | 19428 ft | 318 kts | 2° |
| 2026-04-24 12:12 | 55.87465 | 36.89835 | 19891 ft | 321 kts | 1° |
| 2026-04-24 12:12 | 55.88956 | 36.89885 | 20145 ft | 322 kts | 2° |
| 2026-04-24 12:12 | 55.91177 | 36.89970 | 20499 ft | 324 kts | 2° |
| 2026-04-24 12:13 | 55.93426 | 36.90056 | 20843 ft | 326 kts | 2° |
| 2026-04-24 12:13 | 55.95699 | 36.90149 | 21183 ft | 327 kts | 2° |
| 2026-04-24 12:13 | 55.97960 | 36.90325 | 21521 ft | 329 kts | 8° |
| 2026-04-24 12:13 | 56.00166 | 36.91479 | 21844 ft | 330 kts | 27° |
| 2026-04-24 12:14 | 56.02097 | 36.93590 | 22115 ft | 332 kts | 34° |
| 2026-04-24 12:14 | 56.04074 | 36.95832 | 22410 ft | 335 kts | 33° |
| 2026-04-24 12:14 | 56.06023 | 36.98064 | 22732 ft | 337 kts | 33° |
| 2026-04-24 12:14 | 56.08014 | 37.00381 | 22752 ft | 348 kts | 33° |
| 2026-04-24 12:15 | 56.10088 | 37.02798 | 22772 ft | 360 kts | 33° |
| 2026-04-24 12:15 | 56.12137 | 37.05467 | 22806 ft | 371 kts | 43° |
| 2026-04-24 12:15 | 56.13978 | 37.08804 | 22915 ft | 378 kts | 46° |
| 2026-04-24 12:15 | 56.15848 | 37.12151 | 23251 ft | 381 kts | 45° |
| 2026-04-24 12:16 | 56.17699 | 37.15481 | 23657 ft | 380 kts | 44° |
| 2026-04-24 12:16 | 56.19706 | 37.18603 | 23981 ft | 383 kts | 40° |
| 2026-04-24 12:16 | 56.21754 | 37.21750 | 24390 ft | 388 kts | 41° |
| 2026-04-24 12:16 | 56.23784 | 37.24931 | 24952 ft | 390 kts | 41° |
| 2026-04-24 12:17 | 56.25831 | 37.28142 | 25537 ft | 392 kts | 41° |
| 2026-04-24 12:17 | 56.27882 | 37.31374 | 26048 ft | 395 kts | 41° |
| 2026-04-24 12:17 | 56.29961 | 37.34655 | 26531 ft | 399 kts | 41° |
| 2026-04-24 12:17 | 56.32052 | 37.37962 | 27020 ft | 402 kts | 41° |
| 2026-04-24 12:18 | 56.34167 | 37.41312 | 27519 ft | 405 kts | 41° |
| 2026-04-24 12:18 | 56.36277 | 37.44662 | 28015 ft | 408 kts | 41° |
| 2026-04-24 12:18 | 56.38426 | 37.48081 | 28512 ft | 411 kts | 41° |
| 2026-04-24 12:18 | 56.40584 | 37.51517 | 29000 ft | 415 kts | 41° |
| 2026-04-24 12:19 | 56.42733 | 37.54945 | 29478 ft | 418 kts | 41° |
| 2026-04-24 12:19 | 56.44914 | 37.58429 | 29957 ft | 421 kts | 41° |
| 2026-04-24 12:19 | 56.47124 | 37.61964 | 30438 ft | 425 kts | 41° |
| 2026-04-24 12:19 | 56.49337 | 37.65511 | 30924 ft | 428 kts | 42° |
| 2026-04-24 12:20 | 56.51584 | 37.69117 | 31418 ft | 431 kts | 42° |
| 2026-04-24 12:20 | 56.53824 | 37.72717 | 31895 ft | 434 kts | 42° |
| 2026-04-24 12:20 | 56.56089 | 37.76365 | 32361 ft | 438 kts | 42° |
| 2026-04-24 12:20 | 56.58379 | 37.80059 | 32822 ft | 441 kts | 42° |
| 2026-04-24 12:21 | 56.60648 | 37.83725 | 33267 ft | 444 kts | 42° |
| 2026-04-24 12:21 | 56.62970 | 37.87482 | 33702 ft | 447 kts | 42° |
| 2026-04-24 12:21 | 56.64698 | 37.90281 | 34017 ft | 450 kts | 42° |
| 2026-04-24 12:21 | 56.66651 | 37.93451 | 34372 ft | 453 kts | 42° |
| 2026-04-24 12:22 | 56.68797 | 37.96941 | 34763 ft | 455 kts | 42° |
| 2026-04-24 12:23 | 56.70844 | 38.00277 | 35131 ft | 458 kts | 42° |
| 2026-04-24 12:23 | 56.72757 | 38.03395 | 35466 ft | 460 kts | 42° |
| 2026-04-24 12:23 | 56.74747 | 38.06646 | 35806 ft | 463 kts | 42° |
| 2026-04-24 12:23 | 56.77136 | 38.10554 | 36206 ft | 466 kts | 42° |
| 2026-04-24 12:24 | 56.79560 | 38.14526 | 36584 ft | 470 kts | 42° |
| 2026-04-24 12:24 | 56.81988 | 38.18512 | 36939 ft | 473 kts | 42° |
| 2026-04-24 12:24 | 56.84429 | 38.22527 | 37290 ft | 477 kts | 42° |
| 2026-04-24 12:24 | 56.86894 | 38.26585 | 37628 ft | 480 kts | 42° |
| 2026-04-24 12:25 | 56.89434 | 38.30587 | 37941 ft | 483 kts | 40° |
| 2026-04-24 12:25 | 56.91982 | 38.34552 | 38333 ft | 485 kts | 41° |
| 2026-04-24 12:25 | 56.94544 | 38.38569 | 38775 ft | 484 kts | 41° |
| 2026-04-24 12:25 | 56.97078 | 38.42544 | 38997 ft | 479 kts | 41° |
| 2026-04-24 12:26 | 56.99607 | 38.46517 | 38990 ft | 480 kts | 41° |
| 2026-04-24 12:26 | 57.04689 | 38.54526 | 39005 ft | 488 kts | 41° |
| 2026-04-24 12:27 | 57.09865 | 38.62717 | 38998 ft | 494 kts | 41° |
| 2026-04-24 12:27 | 57.15041 | 38.70935 | 38996 ft | 493 kts | 41° |
| 2026-04-24 12:28 | 57.20194 | 38.79149 | 38997 ft | 493 kts | 41° |
| 2026-04-24 12:28 | 57.25353 | 38.87404 | 38997 ft | 493 kts | 41° |
| 2026-04-24 12:29 | 57.30526 | 38.95713 | 38997 ft | 493 kts | 41° |
| 2026-04-24 12:29 | 57.35660 | 39.03992 | 38997 ft | 493 kts | 41° |
| 2026-04-24 12:30 | 57.40809 | 39.12327 | 38997 ft | 493 kts | 41° |
| 2026-04-24 12:30 | 57.45952 | 39.20685 | 38997 ft | 493 kts | 41° |
| 2026-04-24 12:31 | 57.51120 | 39.29098 | 38996 ft | 493 kts | 41° |
| 2026-04-24 12:31 | 57.56252 | 39.37465 | 38997 ft | 493 kts | 41° |
| 2026-04-24 12:32 | 57.61386 | 39.45867 | 38997 ft | 493 kts | 41° |
| 2026-04-24 12:32 | 57.66494 | 39.54261 | 38997 ft | 493 kts | 41° |
| 2026-04-24 12:33 | 57.71618 | 39.62714 | 38997 ft | 493 kts | 41° |
| 2026-04-24 12:33 | 57.76761 | 39.71230 | 38997 ft | 493 kts | 42° |
| 2026-04-24 12:34 | 57.82066 | 39.79284 | 38976 ft | 493 kts | 33° |
| 2026-04-24 12:34 | 57.88190 | 39.84712 | 38980 ft | 493 kts | 18° |
| 2026-04-24 12:35 | 57.94919 | 39.86939 | 38980 ft | 493 kts | 2° |
| 2026-04-24 12:35 | 58.01695 | 39.85737 | 38980 ft | 493 kts | 347° |
| 2026-04-24 12:36 | 58.08190 | 39.81627 | 39013 ft | 493 kts | 343° |
| 2026-04-24 12:36 | 58.14825 | 39.78559 | 38998 ft | 493 kts | 348° |
| 2026-04-24 12:37 | 58.21531 | 39.75911 | 38997 ft | 493 kts | 349° |
| 2026-04-24 12:37 | 58.28226 | 39.73362 | 38997 ft | 493 kts | 349° |
| 2026-04-24 12:38 | 58.34958 | 39.70811 | 38996 ft | 493 kts | 349° |
| 2026-04-24 12:38 | 58.41626 | 39.68269 | 38997 ft | 493 kts | 349° |
| 2026-04-24 12:39 | 58.55038 | 39.63130 | 38997 ft | 493 kts | 349° |
| 2026-04-24 12:40 | 58.61724 | 39.60553 | 38997 ft | 493 kts | 349° |
| 2026-04-24 12:40 | 58.68395 | 39.57972 | 38997 ft | 493 kts | 349° |
| 2026-04-24 12:41 | 58.75161 | 39.55817 | 39014 ft | 492 kts | 356° |
| 2026-04-24 12:41 | 58.81926 | 39.54628 | 38999 ft | 493 kts | 356° |
| 2026-04-24 12:42 | 58.88747 | 39.53481 | 38997 ft | 493 kts | 356° |
| 2026-04-24 12:42 | 58.95547 | 39.52354 | 38997 ft | 493 kts | 356° |
| 2026-04-24 12:43 | 59.02358 | 39.51224 | 38997 ft | 493 kts | 356° |
| 2026-04-24 12:43 | 59.09147 | 39.50093 | 38997 ft | 493 kts | 356° |
| 2026-04-24 12:44 | 59.15974 | 39.48953 | 38997 ft | 493 kts | 356° |
| 2026-04-24 12:44 | 59.22792 | 39.47816 | 38997 ft | 493 kts | 356° |
| 2026-04-24 12:45 | 59.40469 | 39.44847 | 38995 ft | 493 kts | 356° |
| 2026-04-24 12:45 | 59.73660 | 39.39142 | 38979 ft | 493 kts | 354° |
| 2026-04-24 12:46 | 59.79915 | 39.35954 | 38982 ft | 493 kts | 339° |
| 2026-04-24 12:46 | 59.85563 | 39.29541 | 38981 ft | 493 kts | 322° |
| 2026-04-24 12:47 | 59.90144 | 39.20387 | 38981 ft | 493 kts | 307° |
| 2026-04-24 12:47 | 59.93359 | 39.09104 | 38984 ft | 493 kts | 294° |
| 2026-04-24 12:48 | 59.96603 | 38.97843 | 39012 ft | 493 kts | 306° |
| 2026-04-24 12:48 | 60.00464 | 38.87324 | 38999 ft | 493 kts | 308° |
| 2026-04-24 12:49 | 60.20306 | 38.35514 | 38978 ft | 493 kts | 308° |
| 2026-04-24 12:49 | 60.27004 | 38.16850 | 38988 ft | 493 kts | 302° |
| 2026-04-24 12:50 | 60.30668 | 38.05061 | 38893 ft | 482 kts | 302° |
| 2026-04-24 12:50 | 60.32428 | 37.99342 | 38739 ft | 463 kts | 302° |
| 2026-04-24 12:50 | 60.34052 | 37.94060 | 38197 ft | 426 kts | 302° |
| 2026-04-24 12:50 | 60.35623 | 37.88932 | 36974 ft | 433 kts | 302° |
| 2026-04-24 12:51 | 60.37217 | 37.83717 | 36114 ft | 437 kts | 302° |
| 2026-04-24 12:51 | 60.38834 | 37.78417 | 35447 ft | 436 kts | 302° |
| 2026-04-24 12:51 | 60.40421 | 37.73200 | 34763 ft | 436 kts | 302° |
| 2026-04-24 12:51 | 60.42009 | 37.67971 | 34022 ft | 437 kts | 302° |
| 2026-04-24 12:52 | 60.43628 | 37.62632 | 33237 ft | 438 kts | 302° |
| 2026-04-24 12:52 | 60.45161 | 37.57555 | 32743 ft | 398 kts | 302° |
| 2026-04-24 12:52 | 60.46695 | 37.53054 | 31767 ft | 392 kts | 311° |
| 2026-04-24 12:52 | 60.48552 | 37.48876 | 31130 ft | 391 kts | 313° |
| 2026-04-24 12:53 | 60.50346 | 37.44776 | 30769 ft | 385 kts | 313° |
| 2026-04-24 12:53 | 60.52139 | 37.40749 | 30369 ft | 380 kts | 313° |
| 2026-04-24 12:53 | 60.53927 | 37.36747 | 29881 ft | 377 kts | 313° |
| 2026-04-24 12:53 | 60.55683 | 37.32815 | 29391 ft | 375 kts | 313° |
| 2026-04-24 12:54 | 60.57462 | 37.28831 | 28911 ft | 372 kts | 313° |
| 2026-04-24 12:54 | 60.59201 | 37.24931 | 28448 ft | 369 kts | 313° |
| 2026-04-24 12:54 | 60.60932 | 37.21044 | 27984 ft | 366 kts | 313° |
| 2026-04-24 12:54 | 60.62646 | 37.17189 | 27522 ft | 363 kts | 313° |
| 2026-04-24 12:55 | 60.64344 | 37.13362 | 27060 ft | 360 kts | 313° |
| 2026-04-24 12:55 | 60.66029 | 37.09556 | 26596 ft | 358 kts | 313° |
| 2026-04-24 12:55 | 60.67684 | 37.05811 | 26136 ft | 355 kts | 313° |
| 2026-04-24 12:55 | 60.69349 | 37.02040 | 25676 ft | 353 kts | 313° |
| 2026-04-24 12:56 | 60.71001 | 36.98293 | 25225 ft | 350 kts | 313° |
| 2026-04-24 12:56 | 60.72644 | 36.94562 | 24780 ft | 348 kts | 313° |
| 2026-04-24 12:56 | 60.74261 | 36.90886 | 24342 ft | 345 kts | 313° |
| 2026-04-24 12:56 | 60.75870 | 36.87219 | 23904 ft | 343 kts | 313° |
| 2026-04-24 12:57 | 60.77477 | 36.83551 | 23465 ft | 340 kts | 313° |
| 2026-04-24 12:57 | 60.79040 | 36.79977 | 23038 ft | 338 kts | 313° |
| 2026-04-24 12:57 | 60.80626 | 36.76344 | 22604 ft | 335 kts | 313° |
| 2026-04-24 12:57 | 60.82182 | 36.72774 | 22178 ft | 333 kts | 313° |
| 2026-04-24 12:58 | 60.83725 | 36.69228 | 21754 ft | 331 kts | 313° |
| 2026-04-24 12:58 | 60.85257 | 36.65711 | 21334 ft | 329 kts | 313° |
| 2026-04-24 12:58 | 60.86799 | 36.62167 | 20910 ft | 327 kts | 313° |
| 2026-04-24 12:58 | 60.88302 | 36.58707 | 20497 ft | 324 kts | 313° |
| 2026-04-24 12:59 | 60.89820 | 36.55207 | 20079 ft | 322 kts | 313° |
| 2026-04-24 12:59 | 60.91309 | 36.51768 | 19668 ft | 320 kts | 313° |
| 2026-04-24 12:59 | 60.92799 | 36.48323 | 19257 ft | 318 kts | 313° |
| 2026-04-24 12:59 | 60.94266 | 36.44924 | 18852 ft | 316 kts | 313° |
| 2026-04-24 13:00 | 60.95745 | 36.41492 | 18440 ft | 314 kts | 313° |
| 2026-04-24 13:00 | 60.97183 | 36.38092 | 18023 ft | 311 kts | 309° |
| 2026-04-24 13:00 | 60.98291 | 36.34248 | 17554 ft | 311 kts | 292° |
| 2026-04-24 13:00 | 60.99035 | 36.30069 | 17197 ft | 308 kts | 291° |
| 2026-04-24 13:01 | 60.99808 | 36.25938 | 16816 ft | 305 kts | 291° |
| 2026-04-24 13:01 | 61.00567 | 36.21819 | 16402 ft | 304 kts | 291° |
| 2026-04-24 13:01 | 61.01326 | 36.17697 | 16007 ft | 303 kts | 291° |
| 2026-04-24 13:01 | 61.02076 | 36.13616 | 15622 ft | 301 kts | 291° |
| 2026-04-24 13:02 | 61.02820 | 36.09552 | 15238 ft | 299 kts | 291° |
| 2026-04-24 13:02 | 61.03551 | 36.05548 | 14859 ft | 297 kts | 291° |
| 2026-04-24 13:02 | 61.04285 | 36.01524 | 14477 ft | 295 kts | 291° |
| 2026-04-24 13:02 | 61.05016 | 35.97507 | 14097 ft | 294 kts | 291° |
| 2026-04-24 13:03 | 61.05734 | 35.93554 | 13722 ft | 292 kts | 291° |
| 2026-04-24 13:03 | 61.06442 | 35.89640 | 13352 ft | 290 kts | 291° |
| 2026-04-24 13:03 | 61.07159 | 35.85677 | 12978 ft | 289 kts | 291° |
| 2026-04-24 13:03 | 61.07859 | 35.81796 | 12611 ft | 287 kts | 291° |
| 2026-04-24 13:04 | 61.08559 | 35.77905 | 12244 ft | 285 kts | 291° |
| 2026-04-24 13:04 | 61.09259 | 35.74010 | 11877 ft | 284 kts | 291° |
| 2026-04-24 13:04 | 61.13238 | 35.51900 | 10281 ft | 279 kts | 291° |
| 2026-04-24 13:04 | 61.16000 | 35.36447 | 9403 ft | 272 kts | 291° |
| 2026-04-24 13:05 | 61.18247 | 35.23695 | 8363 ft | 269 kts | 290° |
| 2026-04-24 13:05 | 61.18845 | 35.20320 | 8058 ft | 267 kts | 290° |
| 2026-04-24 13:05 | 61.19428 | 35.17010 | 7729 ft | 267 kts | 290° |
| 2026-04-24 13:05 | 61.20015 | 35.13671 | 7410 ft | 266 kts | 290° |
| 2026-04-24 13:06 | 61.20601 | 35.10329 | 7097 ft | 264 kts | 290° |
| 2026-04-24 13:06 | 61.21172 | 35.07061 | 6788 ft | 263 kts | 290° |
| 2026-04-24 13:06 | 61.21749 | 35.03757 | 6476 ft | 262 kts | 290° |
| 2026-04-24 13:06 | 61.22328 | 35.00431 | 6374 ft | 265 kts | 290° |
| 2026-04-24 13:07 | 61.22904 | 34.97128 | 6374 ft | 263 kts | 290° |
| 2026-04-24 13:07 | 61.25756 | 34.80662 | 6359 ft | 262 kts | 290° |
| 2026-04-24 13:07 | 61.27237 | 34.72581 | 6375 ft | 261 kts | 302° |
| 2026-04-24 13:07 | 61.28509 | 34.69967 | 6397 ft | 261 kts | 329° |
| 2026-04-24 13:08 | 61.30024 | 34.68061 | 6377 ft | 262 kts | 327° |
| 2026-04-24 13:08 | 61.31482 | 34.65887 | 6372 ft | 262 kts | 324° |
| 2026-04-24 13:08 | 61.39491 | 34.53471 | 6298 ft | 258 kts | 323° |
| 2026-04-24 13:09 | 61.55904 | 34.27236 | 3318 ft | 250 kts | 322° |
| 2026-04-24 13:09 | 61.57354 | 34.24890 | 3034 ft | 248 kts | 323° |
| 2026-04-24 13:09 | 61.58773 | 34.22614 | 2696 ft | 248 kts | 323° |
| 2026-04-24 13:09 | 61.60184 | 34.20339 | 2473 ft | 248 kts | 323° |
| 2026-04-24 13:10 | 61.61609 | 34.18042 | 2476 ft | 247 kts | 323° |
| 2026-04-24 13:10 | 61.63010 | 34.15780 | 2473 ft | 247 kts | 323° |
| 2026-04-24 13:10 | 61.64436 | 34.13475 | 2473 ft | 247 kts | 323° |
| 2026-04-24 13:10 | 61.65838 | 34.11206 | 2473 ft | 247 kts | 323° |
| 2026-04-24 13:11 | 61.67241 | 34.08933 | 2465 ft | 240 kts | 323° |
| 2026-04-24 13:11 | 61.68578 | 34.06762 | 2453 ft | 226 kts | 323° |
| 2026-04-24 13:11 | 61.69826 | 34.04733 | 2455 ft | 209 kts | 323° |
| 2026-04-24 13:11 | 61.70921 | 34.02951 | 2434 ft | 177 kts | 323° |
| 2026-04-24 13:12 | 61.71953 | 34.01665 | 2184 ft | 159 kts | 348° |
| 2026-04-24 13:12 | 61.73020 | 34.01966 | 2055 ft | 152 kts | 24° |
| 2026-04-24 13:12 | 61.74094 | 34.02887 | 2178 ft | 171 kts | 21° |
| 2026-04-24 13:12 | 61.75216 | 34.03753 | 2075 ft | 156 kts | 22° |
| 2026-04-24 13:13 | 61.76267 | 34.04629 | 2056 ft | 162 kts | 23° |
| 2026-04-24 13:13 | 61.77335 | 34.05547 | 2086 ft | 161 kts | 23° |
| 2026-04-24 13:13 | 61.78406 | 34.06483 | 2064 ft | 158 kts | 24° |
| 2026-04-24 13:13 | 61.79447 | 34.07403 | 2074 ft | 158 kts | 24° |
| 2026-04-24 13:14 | 61.80499 | 34.08347 | 2073 ft | 158 kts | 24° |
| 2026-04-24 13:14 | 61.81568 | 34.09323 | 1777 ft | 161 kts | 25° |
| 2026-04-24 13:14 | 61.82608 | 34.10319 | 1454 ft | 159 kts | 24° |
| 2026-04-24 13:14 | 61.83674 | 34.11155 | 1166 ft | 156 kts | 20° |
| 2026-04-24 13:15 | 61.84710 | 34.12051 | 833 ft | 157 kts | 23° |
| 2026-04-24 13:15 | 61.85731 | 34.12958 | 610 ft | 150 kts | 24° |
| 2026-04-24 13:15 | 61.86710 | 34.13854 | 388 ft | 143 kts | 23° |
| 2026-04-24 13:15 | 61.87633 | 34.14671 | 158 ft | 135 kts | 23° |
| 2026-04-24 13:16 | 61.88350 | 34.15337 | 152 ft | 65 kts | 22° |
| 2026-04-24 13:16 | 61.88718 | 34.15667 | 155 ft | 55 kts | 23° |
| 2026-04-24 13:16 | 61.89073 | 34.15986 | 155 ft | 52 kts | 23° |
| 2026-04-24 13:16 | 61.89309 | 34.16199 | 152 ft | 8 kts | 26° |
| 2026-04-24 13:17 | 61.89371 | 34.16290 | 150 ft | 9 kts | 47° |
| 2026-04-24 13:17 | 61.89397 | 34.16317 | 149 ft | 0 kts | 328° |
| 2026-04-24 13:17 | 61.89400 | 34.16304 | 149 ft | 1 kts | 290° |
| 2026-04-24 13:17 | 61.89394 | 34.16272 | 150 ft | 3 kts | 226° |
| 2026-04-24 13:18 | 61.89331 | 34.16211 | 151 ft | 15 kts | 194° |
| 2026-04-24 13:18 | 61.89226 | 34.16124 | 153 ft | 16 kts | 205° |
| 2026-04-24 13:18 | 61.89125 | 34.16007 | 155 ft | 15 kts | 214° |
| 2026-04-24 13:18 | 61.89037 | 34.15902 | 155 ft | 12 kts | 192° |
| 2026-04-24 13:19 | 61.88953 | 34.15874 | 155 ft | 12 kts | 200° |
| 2026-04-24 13:19 | 61.88861 | 34.15792 | 155 ft | 17 kts | 202° |
| 2026-04-24 13:19 | 61.88703 | 34.15654 | 155 ft | 29 kts | 202° |
| 2026-04-24 13:19 | 61.88466 | 34.15432 | 152 ft | 42 kts | 202° |
| 2026-04-24 13:20 | 61.88152 | 34.15149 | 153 ft | 43 kts | 203° |
| 2026-04-24 13:20 | 61.87987 | 34.15004 | 155 ft | 19 kts | 197° |
| 2026-04-24 13:20 | 61.87886 | 34.15106 | 152 ft | 16 kts | 120° |
| 2026-04-24 13:20 | 61.87825 | 34.15245 | 151 ft | 11 kts | 152° |
| 2026-04-24 13:21 | 61.87777 | 34.15341 | 149 ft | 10 kts | 118° |
| 2026-04-24 13:21 | 61.87760 | 34.15415 | 147 ft | 4 kts | 114° |
| 2026-04-24 13:21 | 61.87756 | 34.15435 | 147 ft | 2 kts | 113° |